Merksplas, Belgium
Current Conditions -  °F | °C
As of 9:32 AM on Monday 26 Jan 2015 (Local Time) from EHGR Reporting Station
Moderate Fog Moderate Fog  
Wind Chill: 36°   Ceiling: 100
Heat Index: 41°   Visibility: 0.43mi
Dew Point: 41°   Wind: 7mph
Humidity: 100%   Direction: 210°SSW
Pressure: 30.12"   Gusts: NA
Location:  51.36°N, 4.87°E
Report Text: EHGR 260832Z AUTO 21006KT 0700 R28/0900 FG VV001 05/05 Q1020 REDZ RED 22008KT 3000 BR BKN003 OVC004 TEMPO 0500 FG SCT001 BKN002 OVC003
Loading
Personal Weather Stations






























Interactive Weather Map New forecast layout! Learn more

10-Day Weather Forecast

Advertisements
Track Severe Weather on mobile